createdAt,value
2018-03-21T00:02:03.981Z,91.20
2018-03-21T00:04:31.577Z,90.90
2018-03-21T00:07:00.128Z,91.20
2018-03-21T00:09:27.725Z,91.20
2018-03-21T00:11:55.569Z,91.10
2018-03-21T00:14:24.200Z,91.20
2018-03-21T00:16:52.084Z,91.20
2018-03-21T00:19:19.662Z,91.10
2018-03-21T00:21:47.275Z,91.20
2018-03-21T00:24:15.104Z,91.30
2018-03-21T00:26:43.526Z,91.10
2018-03-21T00:29:11.429Z,91.10
2018-03-21T00:31:39.770Z,91.10
2018-03-21T00:34:07.383Z,91.10
2018-03-21T00:36:36.089Z,90.80
2018-03-21T00:39:03.700Z,90.80
2018-03-21T00:41:31.571Z,91.00
2018-03-21T00:43:59.167Z,91.00
2018-03-21T00:46:26.855Z,91.20
2018-03-21T00:48:54.598Z,91.50
2018-03-21T00:51:22.395Z,91.00
2018-03-21T00:53:49.960Z,91.30
2018-03-21T00:56:17.944Z,91.20
2018-03-21T00:58:45.650Z,91.10
2018-03-21T01:01:13.209Z,91.30
2018-03-21T01:03:41.132Z,91.30
2018-03-21T01:06:09.041Z,92.00
2018-03-21T01:08:36.619Z,91.50
2018-03-21T01:11:04.214Z,91.40
2018-03-21T01:13:33.670Z,91.50
2018-03-21T01:16:01.231Z,91.50
2018-03-21T01:18:28.786Z,90.80
2018-03-21T01:20:56.533Z,91.00
2018-03-21T01:23:24.266Z,90.70
2018-03-21T01:25:52.077Z,90.90
2018-03-21T01:28:19.988Z,90.90
2018-03-21T01:30:48.050Z,90.90
2018-03-21T01:33:15.602Z,90.80
2018-03-21T01:35:43.376Z,91.00
2018-03-21T01:38:11.218Z,91.40
2018-03-21T01:40:38.782Z,90.80
2018-03-21T01:43:06.589Z,90.70
2018-03-21T01:45:34.915Z,91.00
2018-03-21T01:48:02.661Z,91.00
2018-03-21T01:50:30.546Z,91.20
2018-03-21T01:53:10.050Z,91.30
2018-03-21T01:55:37.940Z,91.30
2018-03-21T01:58:05.582Z,91.50
2018-03-21T02:00:33.294Z,91.10
2018-03-21T02:03:01.272Z,91.30
2018-03-21T02:05:29.598Z,90.80
2018-03-21T02:07:57.471Z,90.90
2018-03-21T02:10:25.223Z,90.70
2018-03-21T02:12:52.996Z,90.50
2018-03-21T02:15:20.896Z,90.70
2018-03-21T02:17:48.544Z,91.10
2018-03-21T02:20:16.098Z,91.40
2018-03-21T02:22:43.881Z,91.30
2018-03-21T02:25:11.739Z,90.70
2018-03-21T02:27:39.289Z,90.30
2018-03-21T02:30:06.853Z,90.60
2018-03-21T02:32:34.782Z,90.60
2018-03-21T02:35:02.538Z,90.60
2018-03-21T02:37:30.106Z,90.50
2018-03-21T02:39:57.905Z,91.10
2018-03-21T02:42:25.613Z,90.90
2018-03-21T02:44:53.637Z,90.50
2018-03-21T02:47:21.502Z,90.40
2018-03-21T02:49:49.570Z,91.00
2018-03-21T02:52:17.153Z,91.20
2018-03-21T02:54:45.089Z,91.00
2018-03-21T02:57:12.909Z,90.90
2018-03-21T02:59:40.458Z,91.00
2018-03-21T03:02:08.118Z,90.90
2018-03-21T03:04:36.709Z,90.60
2018-03-21T03:07:04.490Z,90.50
2018-03-21T03:09:32.171Z,91.40
2018-03-21T03:11:59.754Z,90.70
2018-03-21T03:14:27.303Z,91.00
2018-03-21T03:16:55.069Z,91.50
2018-03-21T03:19:22.679Z,91.30
2018-03-21T03:21:50.226Z,91.20
2018-03-21T03:24:18.761Z,90.80
2018-03-21T03:26:46.375Z,90.80
2018-03-21T03:29:14.398Z,90.80
2018-03-21T03:31:42.214Z,90.90
2018-03-21T03:34:09.761Z,90.80
2018-03-21T03:36:37.333Z,91.20
2018-03-21T03:39:05.082Z,91.00
2018-03-21T03:41:32.702Z,91.40
2018-03-21T03:44:00.250Z,91.50
2018-03-21T03:46:28.017Z,91.10
2018-03-21T03:48:55.689Z,91.10
2018-03-21T03:51:23.702Z,91.20
2018-03-21T03:53:51.900Z,91.20
2018-03-21T03:56:19.462Z,91.30
2018-03-21T03:58:47.012Z,91.60
2018-03-21T04:01:14.635Z,91.30
2018-03-21T04:03:42.965Z,91.20
2018-03-21T04:06:10.523Z,91.20
2018-03-21T04:08:38.136Z,91.20
2018-03-21T04:11:05.684Z,91.20
2018-03-21T04:13:34.079Z,91.30
2018-03-21T04:16:01.674Z,91.20
2018-03-21T04:18:29.217Z,91.00
2018-03-21T04:20:56.779Z,91.30
2018-03-21T04:23:24.606Z,91.10
2018-03-21T04:25:52.998Z,91.60
2018-03-21T04:28:20.566Z,91.60
2018-03-21T04:30:48.375Z,91.70
2018-03-21T04:33:15.921Z,91.60
2018-03-21T04:35:43.660Z,91.40
2018-03-21T04:38:11.350Z,91.50
2018-03-21T04:40:39.185Z,91.60
2018-03-21T04:43:06.909Z,91.60
2018-03-21T04:45:35.553Z,91.60
2018-03-21T04:48:03.111Z,91.60
2018-03-21T04:50:30.705Z,91.60
2018-03-21T04:52:59.399Z,91.80
2018-03-21T04:55:27.822Z,91.50
2018-03-21T04:57:55.385Z,91.50
2018-03-21T05:00:23.209Z,91.40
2018-03-21T05:02:50.770Z,91.30
2018-03-21T05:05:18.333Z,91.30
2018-03-21T05:07:45.914Z,91.10
2018-03-21T05:10:13.462Z,91.10
2018-03-21T05:12:41.069Z,91.50
2018-03-21T05:15:08.681Z,91.50
2018-03-21T05:17:36.234Z,91.50
2018-03-21T05:20:03.811Z,91.40
2018-03-21T05:22:31.417Z,91.70
2018-03-21T05:24:59.013Z,91.60
2018-03-21T05:27:27.306Z,91.60
2018-03-21T05:29:54.890Z,91.60
2018-03-21T05:32:22.442Z,91.80
2018-03-21T05:34:50.003Z,91.80
2018-03-21T05:37:17.683Z,91.70
2018-03-21T05:39:45.547Z,92.00
2018-03-21T05:42:13.104Z,91.90
2018-03-21T05:44:40.716Z,92.00
2018-03-21T05:47:08.263Z,91.70
2018-03-21T05:49:35.814Z,92.00
2018-03-21T05:52:03.487Z,92.00
2018-03-21T05:54:31.460Z,92.50
2018-03-21T05:56:59.577Z,92.40
2018-03-21T05:59:27.437Z,92.40
2018-03-21T06:01:54.997Z,92.30
2018-03-21T06:04:24.152Z,92.10
2018-03-21T06:06:51.848Z,92.10
2018-03-21T06:09:19.707Z,92.10
2018-03-21T06:11:47.513Z,92.50
2018-03-21T06:14:15.143Z,92.10
2018-03-21T06:16:42.708Z,92.10
2018-03-21T06:19:10.394Z,92.10
2018-03-21T06:21:38.218Z,92.10
2018-03-21T06:24:05.848Z,92.30
2018-03-21T06:26:33.481Z,92.40
2018-03-21T06:29:01.190Z,92.80
2018-03-21T06:31:29.009Z,92.10
2018-03-21T06:33:56.561Z,91.70
2018-03-21T06:36:24.391Z,91.80
2018-03-21T06:38:52.269Z,91.80
2018-03-21T06:41:19.825Z,91.70
2018-03-21T06:43:47.438Z,92.00
2018-03-21T06:46:15.236Z,92.10
2018-03-21T06:48:43.064Z,92.00
2018-03-21T06:51:10.793Z,92.30
2018-03-21T06:53:39.120Z,92.10
2018-03-21T06:56:06.868Z,92.10
2018-03-21T06:58:34.775Z,92.30
2018-03-21T07:01:02.583Z,91.90
2018-03-21T07:03:30.462Z,92.10
2018-03-21T07:05:58.166Z,91.60
2018-03-21T07:08:25.750Z,91.50
2018-03-21T07:10:53.479Z,91.50
2018-03-21T07:13:21.100Z,91.60
2018-03-21T07:16:00.508Z,91.60
2018-03-21T07:18:29.150Z,91.40
2018-03-21T07:20:56.990Z,91.30
2018-03-21T07:23:24.550Z,91.20
2018-03-21T07:25:52.154Z,91.40
2018-03-21T07:28:20.529Z,91.40
2018-03-21T07:30:48.084Z,91.60
2018-03-21T07:33:15.876Z,91.00
2018-03-21T07:35:43.494Z,90.90
2018-03-21T07:38:11.201Z,90.80
2018-03-21T07:40:38.964Z,91.10
2018-03-21T07:43:06.534Z,91.40
2018-03-21T07:45:34.085Z,91.60
2018-03-21T07:48:01.898Z,91.20
2018-03-21T07:50:29.450Z,91.20
2018-03-21T07:52:57.225Z,90.80
2018-03-21T07:55:24.817Z,90.60
2018-03-21T07:57:52.509Z,90.40
2018-03-21T08:00:20.209Z,90.40
2018-03-21T08:02:47.793Z,90.10
2018-03-21T08:05:15.354Z,90.20
2018-03-21T08:07:43.344Z,90.10
2018-03-21T08:10:11.052Z,90.40
2018-03-21T08:12:38.602Z,90.10
2018-03-21T08:15:06.154Z,90.40
2018-03-21T08:17:33.850Z,89.40
2018-03-21T08:20:02.172Z,90.00
2018-03-21T08:22:29.722Z,90.00
2018-03-21T08:24:57.322Z,90.10
2018-03-21T08:27:25.053Z,90.30
2018-03-21T08:29:52.618Z,89.60
2018-03-21T08:32:20.258Z,88.60
2018-03-21T08:34:47.819Z,88.70
2018-03-21T08:37:15.478Z,87.90
2018-03-21T08:39:43.082Z,86.30
2018-03-21T08:42:10.638Z,86.90
2018-03-21T08:44:38.191Z,86.30
2018-03-21T08:47:05.790Z,84.70
2018-03-21T08:49:34.107Z,84.60
2018-03-21T08:52:01.693Z,84.70
2018-03-21T08:54:30.235Z,83.70
2018-03-21T08:56:57.790Z,81.80
2018-03-21T08:59:25.446Z,81.70
2018-03-21T09:01:53.049Z,81.30
2018-03-21T09:04:20.602Z,78.90
2018-03-21T09:06:48.219Z,78.00
2018-03-21T09:09:15.986Z,78.20
2018-03-21T09:11:43.583Z,77.90
2018-03-21T09:14:11.149Z,76.20
2018-03-21T09:16:38.740Z,75.20
2018-03-21T09:19:07.054Z,71.50
2018-03-21T09:21:34.607Z,71.30
2018-03-21T09:24:02.198Z,71.20
2018-03-21T09:26:29.810Z,72.80
2018-03-21T09:31:48.523Z,65.70
2018-03-21T09:34:16.306Z,62.30
2018-03-21T09:36:43.857Z,56.70
2018-03-21T09:39:11.457Z,57.10
2018-03-21T09:41:39.449Z,55.00
2018-03-21T09:44:07.011Z,52.60
2018-03-21T09:46:34.779Z,53.60
2018-03-21T09:49:02.669Z,52.10
2018-03-21T09:51:30.215Z,52.90
2018-03-21T09:53:57.922Z,52.10
2018-03-21T09:56:25.638Z,54.20
2018-03-21T09:58:53.337Z,55.50
2018-03-21T10:01:21.747Z,50.50
2018-03-21T10:03:49.475Z,50.40
2018-03-21T10:06:17.864Z,49.30
2018-03-21T10:08:45.738Z,49.30
2018-03-21T10:11:13.327Z,50.80
2018-03-21T10:13:40.929Z,49.20
2018-03-21T10:16:08.559Z,47.20
2018-03-21T10:18:36.105Z,47.50
2018-03-21T10:21:03.664Z,46.40
2018-03-21T10:23:31.379Z,44.50
2018-03-21T10:25:58.978Z,44.40
2018-03-21T10:28:26.618Z,45.30
2018-03-21T10:30:54.202Z,44.50
2018-03-21T10:33:21.787Z,46.60
2018-03-21T10:35:49.458Z,47.60
2018-03-21T10:38:17.808Z,45.40
2018-03-21T10:40:45.354Z,45.40
2018-03-21T10:43:12.922Z,45.20
2018-03-21T10:45:40.563Z,49.40
2018-03-21T10:48:08.330Z,48.40
2018-03-21T10:50:36.186Z,49.20
2018-03-21T10:53:03.802Z,46.00
2018-03-21T10:55:31.362Z,49.10
2018-03-21T10:57:59.699Z,48.10
2018-03-21T11:00:27.481Z,47.50
2018-03-21T11:03:08.016Z,46.60
2018-03-21T11:05:35.610Z,48.80
2018-03-21T11:08:03.298Z,48.90
2018-03-21T11:10:30.847Z,47.50
2018-03-21T11:12:59.251Z,45.30
2018-03-21T11:15:27.156Z,45.30
2018-03-21T11:17:54.702Z,44.30
2018-03-21T11:20:22.315Z,40.50
2018-03-21T11:22:50.903Z,43.10
2018-03-21T11:25:18.446Z,43.10
2018-03-21T11:27:46.306Z,45.30
2018-03-21T11:30:14.635Z,49.30
2018-03-21T11:32:42.183Z,49.20
2018-03-21T11:35:09.856Z,48.10
2018-03-21T11:37:37.495Z,47.00
2018-03-21T11:40:05.058Z,44.30
2018-03-21T11:42:32.631Z,43.10
2018-03-21T11:45:00.522Z,40.90
2018-03-21T11:47:28.042Z,42.50
2018-03-21T11:49:55.989Z,43.80
2018-03-21T11:52:23.629Z,46.20
2018-03-21T11:54:51.317Z,46.50
2018-03-21T11:57:19.079Z,49.20
2018-03-21T11:59:46.699Z,48.40
2018-03-21T12:02:15.178Z,52.90
2018-03-21T12:04:42.788Z,52.90
2018-03-21T12:07:10.357Z,53.20
2018-03-21T12:09:37.913Z,55.80
2018-03-21T12:12:05.502Z,55.80
2018-03-21T12:14:33.062Z,54.40
2018-03-21T12:17:00.615Z,54.80
2018-03-21T12:19:28.467Z,52.70
2018-03-21T12:21:56.021Z,50.70
2018-03-21T12:24:23.580Z,49.50
2018-03-21T12:26:51.170Z,51.60
2018-03-21T12:29:18.730Z,50.90
2018-03-21T12:31:46.275Z,51.50
2018-03-21T12:34:13.851Z,51.50
2018-03-21T12:36:41.748Z,51.50
2018-03-21T12:39:09.343Z,50.80
2018-03-21T12:41:36.993Z,52.30
2018-03-21T12:44:04.565Z,51.40
2018-03-21T12:46:32.259Z,48.80
2018-03-21T12:49:00.610Z,46.10
2018-03-21T12:51:28.191Z,46.10
2018-03-21T12:53:55.809Z,43.70
2018-03-21T12:56:23.660Z,41.30
2018-03-21T12:58:51.339Z,41.60
2018-03-21T13:01:18.882Z,43.90
2018-03-21T13:03:46.461Z,43.20
2018-03-21T13:06:14.002Z,42.70
2018-03-21T13:08:41.777Z,40.80
2018-03-21T13:11:09.363Z,38.10
2018-03-21T13:13:36.953Z,38.70
2018-03-21T13:16:05.268Z,45.30
2018-03-21T13:18:33.086Z,45.40
2018-03-21T13:21:01.721Z,47.10
2018-03-21T13:23:29.354Z,47.10
2018-03-21T13:25:57.209Z,47.20
2018-03-21T13:28:25.149Z,46.00
2018-03-21T13:30:52.745Z,46.40
2018-03-21T13:33:20.450Z,47.30
2018-03-21T13:35:47.991Z,40.60
2018-03-21T13:38:15.597Z,42.00
2018-03-21T13:40:43.214Z,44.60
2018-03-21T13:43:10.768Z,44.40
2018-03-21T13:45:38.330Z,47.40
2018-03-21T13:48:06.907Z,49.20
2018-03-21T13:50:34.501Z,51.00
2018-03-21T13:53:02.335Z,50.00
2018-03-21T13:55:30.095Z,49.60
2018-03-21T13:57:57.651Z,49.40
2018-03-21T14:00:25.518Z,49.10
2018-03-21T14:02:53.132Z,47.30
2018-03-21T14:05:20.723Z,48.50
2018-03-21T14:07:48.548Z,49.80
2018-03-21T14:10:16.939Z,51.80
2018-03-21T14:12:44.660Z,51.10
2018-03-21T14:15:12.330Z,52.60
2018-03-21T14:17:40.043Z,54.00
2018-03-21T14:20:07.806Z,54.70
2018-03-21T14:22:35.525Z,54.70
2018-03-21T14:25:03.122Z,55.70
2018-03-21T14:27:30.691Z,54.60
2018-03-21T14:29:58.258Z,53.00
2018-03-21T14:32:25.862Z,51.30
2018-03-21T14:34:53.410Z,51.60
2018-03-21T14:37:21.452Z,51.50
2018-03-21T14:39:49.042Z,52.60
2018-03-21T14:42:16.749Z,52.50
2018-03-21T14:44:44.308Z,53.00
2018-03-21T14:47:12.024Z,52.60
2018-03-21T14:49:39.590Z,53.80
2018-03-21T14:52:08.499Z,53.90
2018-03-21T14:54:36.965Z,54.00
2018-03-21T14:57:05.386Z,53.40
2018-03-21T14:59:32.967Z,53.40
2018-03-21T15:02:00.551Z,53.20
2018-03-21T15:04:28.131Z,53.80
2018-03-21T15:06:55.694Z,52.70
2018-03-21T15:09:23.324Z,53.60
2018-03-21T15:11:51.159Z,54.70
2018-03-21T15:14:18.726Z,56.10
2018-03-21T15:16:46.355Z,53.90
2018-03-21T15:19:14.277Z,53.00
2018-03-21T15:21:41.807Z,52.50
2018-03-21T15:24:09.692Z,52.50
2018-03-21T15:26:37.289Z,53.80
2018-03-21T15:29:05.046Z,53.30
2018-03-21T15:31:32.950Z,53.40
2018-03-21T15:34:00.767Z,52.80
2018-03-21T15:36:29.090Z,53.50
2018-03-21T15:38:57.095Z,53.40
2018-03-21T15:41:24.704Z,53.30
2018-03-21T15:43:52.336Z,53.70
2018-03-21T15:46:19.918Z,53.60
2018-03-21T15:48:47.646Z,53.50
2018-03-21T15:51:15.219Z,54.10
2018-03-21T15:53:43.889Z,53.70
2018-03-21T15:56:11.459Z,53.70
2018-03-21T15:58:39.411Z,53.70
2018-03-21T16:01:07.322Z,52.50
2018-03-21T16:03:35.144Z,53.60
2018-03-21T16:06:02.715Z,53.10
2018-03-21T16:08:30.456Z,53.60
2018-03-21T16:10:58.011Z,53.40
2018-03-21T16:13:25.581Z,51.90
2018-03-21T16:15:53.278Z,52.80
2018-03-21T16:18:21.067Z,53.60
2018-03-21T16:20:48.832Z,52.90
2018-03-21T16:23:16.442Z,53.80
2018-03-21T16:25:44.797Z,52.80
2018-03-21T16:28:14.162Z,53.10
2018-03-21T16:30:42.033Z,53.10
2018-03-21T16:33:09.729Z,53.40
2018-03-21T16:35:37.295Z,54.10
2018-03-21T16:38:04.914Z,54.70
2018-03-21T16:40:32.971Z,53.80
2018-03-21T16:43:00.739Z,54.40
2018-03-21T16:45:28.371Z,54.70
2018-03-21T16:47:55.946Z,55.70
2018-03-21T16:50:23.533Z,56.40
2018-03-21T16:52:51.222Z,55.70
2018-03-21T16:55:19.560Z,57.80
2018-03-21T16:57:47.112Z,57.80
2018-03-21T17:00:15.037Z,59.30
2018-03-21T17:02:43.464Z,61.80
2018-03-21T17:05:11.044Z,61.80
2018-03-21T17:07:38.688Z,62.10
2018-03-21T17:10:06.265Z,62.20
2018-03-21T17:12:34.619Z,65.40
2018-03-21T17:15:02.426Z,66.00
2018-03-21T17:17:30.872Z,67.50
2018-03-21T17:19:58.432Z,67.20
2018-03-21T17:22:26.029Z,67.70
2018-03-21T17:24:54.402Z,68.50
2018-03-21T17:27:22.838Z,69.70
2018-03-21T17:29:51.000Z,69.70
2018-03-21T17:32:18.573Z,70.80
2018-03-21T17:34:46.318Z,70.90
2018-03-21T17:37:13.920Z,71.00
2018-03-21T17:39:42.262Z,74.30
2018-03-21T17:42:09.825Z,74.20
2018-03-21T17:44:37.791Z,74.90
2018-03-21T17:47:05.450Z,75.00
2018-03-21T17:49:33.020Z,75.80
2018-03-21T17:52:00.680Z,76.00
2018-03-21T17:54:28.281Z,77.20
2018-03-21T17:56:56.607Z,76.80
2018-03-21T17:59:24.573Z,76.80
2018-03-21T18:01:52.243Z,77.60
2018-03-21T18:04:19.998Z,78.10
2018-03-21T18:06:47.916Z,78.30
2018-03-21T18:09:15.485Z,78.50
2018-03-21T18:11:43.826Z,78.50
2018-03-21T18:14:11.477Z,78.50
2018-03-21T18:16:39.057Z,78.40
2018-03-21T18:19:07.393Z,79.20
2018-03-21T18:21:35.007Z,79.10
2018-03-21T18:24:04.051Z,80.00
2018-03-21T18:26:32.776Z,80.00
2018-03-21T18:29:00.546Z,80.10
2018-03-21T18:31:28.171Z,79.80
2018-03-21T18:33:56.333Z,80.00
2018-03-21T18:36:23.960Z,80.80
2018-03-21T18:38:51.526Z,80.60
2018-03-21T18:41:19.312Z,81.00
2018-03-21T18:43:47.176Z,81.50
2018-03-21T18:46:14.764Z,81.10
2018-03-21T18:48:42.403Z,82.00
2018-03-21T18:51:10.206Z,82.30
2018-03-21T18:53:38.723Z,83.20
2018-03-21T18:56:06.287Z,83.10
2018-03-21T18:58:34.173Z,82.90
2018-03-21T19:01:01.733Z,82.60
2018-03-21T19:03:29.497Z,82.90
2018-03-21T19:05:58.274Z,82.60
2018-03-21T19:08:26.027Z,83.60
2018-03-21T19:10:53.983Z,84.40
2018-03-21T19:13:21.969Z,84.40
2018-03-21T19:15:49.753Z,84.80
2018-03-21T19:18:17.748Z,84.80
2018-03-21T19:20:46.892Z,85.60
2018-03-21T19:23:14.700Z,85.60
2018-03-21T19:25:42.730Z,85.90
2018-03-21T19:28:10.488Z,85.70
2018-03-21T19:30:38.258Z,85.90
2018-03-21T19:33:05.832Z,85.50
2018-03-21T19:35:33.538Z,85.60
2018-03-21T19:38:01.742Z,85.80
2018-03-21T19:40:29.314Z,86.10
2018-03-21T19:42:57.148Z,85.90
2018-03-21T19:45:24.835Z,85.60
2018-03-21T19:47:52.432Z,85.70
2018-03-21T19:50:20.564Z,85.10
2018-03-21T19:52:48.177Z,84.50
2018-03-21T19:55:15.790Z,84.90
2018-03-21T19:57:43.923Z,85.40
2018-03-21T20:00:12.554Z,87.00
2018-03-21T20:02:40.679Z,86.90
2018-03-21T20:05:08.868Z,87.00
2018-03-21T20:07:36.649Z,87.00
2018-03-21T20:10:04.269Z,86.60
2018-03-21T20:12:32.379Z,86.10
2018-03-21T20:15:00.039Z,86.30
2018-03-21T20:17:27.611Z,86.80
2018-03-21T20:19:55.398Z,86.50
2018-03-21T20:22:23.979Z,85.80
2018-03-21T20:24:51.617Z,85.70
2018-03-21T20:27:19.412Z,86.10
2018-03-21T20:29:47.234Z,87.30
2018-03-21T20:32:15.301Z,88.10
2018-03-21T20:34:43.087Z,87.60
2018-03-21T20:37:10.655Z,85.50
2018-03-21T20:39:38.314Z,87.20
2018-03-21T20:42:06.187Z,88.10
2018-03-21T20:44:33.763Z,86.60
2018-03-21T20:47:01.345Z,87.20
2018-03-21T20:49:29.184Z,87.30
2018-03-21T20:51:57.510Z,86.80
2018-03-21T20:54:25.094Z,86.70
2018-03-21T20:56:52.804Z,86.50
2018-03-21T20:59:20.599Z,87.60
2018-03-21T21:01:48.161Z,87.70
2018-03-21T21:04:15.789Z,87.20
2018-03-21T21:06:44.435Z,86.40
2018-03-21T21:09:12.819Z,86.60
2018-03-21T21:11:40.744Z,86.60
2018-03-21T21:14:08.526Z,87.20
2018-03-21T21:16:36.160Z,87.70
2018-03-21T21:19:03.794Z,87.90
2018-03-21T21:21:32.133Z,89.00
2018-03-21T21:23:59.694Z,89.00
2018-03-21T21:26:27.292Z,89.50
2018-03-21T21:28:54.860Z,89.00
2018-03-21T21:31:22.450Z,87.80
2018-03-21T21:33:50.074Z,89.00
2018-03-21T21:36:17.634Z,89.40
2018-03-21T21:38:45.307Z,90.10
2018-03-21T21:41:12.911Z,90.20
2018-03-21T21:43:40.982Z,89.70
2018-03-21T21:46:08.551Z,88.80
2018-03-21T21:48:36.157Z,90.00
2018-03-21T21:51:03.923Z,89.50
2018-03-21T21:53:31.490Z,88.20
2018-03-21T21:55:59.119Z,87.70
2018-03-21T21:58:26.679Z,90.10
2018-03-21T22:00:54.252Z,90.00
2018-03-21T22:03:22.078Z,89.10
2018-03-21T22:05:50.442Z,88.70
2018-03-21T22:08:18.193Z,88.70
2018-03-21T22:10:45.826Z,88.20
2018-03-21T22:13:14.402Z,88.70
2018-03-21T22:15:42.345Z,88.90
2018-03-21T22:18:10.239Z,88.40
2018-03-21T22:20:37.816Z,88.00
2018-03-21T22:23:05.546Z,87.80
2018-03-21T22:25:33.307Z,88.00
2018-03-21T22:28:00.869Z,88.50
2018-03-21T22:30:28.415Z,88.70
2018-03-21T22:32:56.225Z,88.80
2018-03-21T22:35:23.831Z,87.90
2018-03-21T22:37:51.384Z,89.20
2018-03-21T22:40:19.895Z,89.50
2018-03-21T22:42:47.480Z,89.50
2018-03-21T22:45:15.245Z,90.30
2018-03-21T22:47:43.071Z,89.80
2018-03-21T22:50:10.770Z,88.80
2018-03-21T22:52:38.326Z,88.50
2018-03-21T22:55:05.920Z,89.70
2018-03-21T22:57:33.471Z,89.70
2018-03-21T23:00:01.029Z,88.80
2018-03-21T23:02:29.378Z,89.60
2018-03-21T23:04:56.962Z,89.60
2018-03-21T23:07:26.112Z,88.60
2018-03-21T23:09:53.867Z,88.60
2018-03-21T23:12:21.434Z,88.60
2018-03-21T23:14:49.279Z,87.30
2018-03-21T23:17:16.883Z,88.30
2018-03-21T23:19:44.609Z,88.80
2018-03-21T23:22:12.184Z,88.70
2018-03-21T23:24:39.805Z,88.70
2018-03-21T23:27:08.386Z,89.50
2018-03-21T23:29:36.698Z,89.50
2018-03-21T23:32:04.429Z,89.20
2018-03-21T23:34:32.750Z,88.10
2018-03-21T23:37:00.293Z,88.00
2018-03-21T23:39:28.022Z,88.80
2018-03-21T23:41:56.342Z,89.40
2018-03-21T23:44:23.891Z,89.30
2018-03-21T23:46:51.757Z,89.60
2018-03-21T23:49:19.665Z,89.50
2018-03-21T23:51:47.282Z,88.70
2018-03-21T23:54:14.914Z,89.10
2018-03-21T23:56:42.466Z,88.60
2018-03-21T23:59:11.057Z,89.10
